Time;durP1;ratioP1;P1;durP2;ratioP2;P2;SDS_P1;SDS_P2;PMS_P1;PMS_P2;Temp;Humidity;BMP_temperature;BMP_pressure;BME280_temperature;BME280_humidity;BME280_pressure;Samples;Min_cycle;Max_cycle;Signal;HPM_P1;HPM_P2
2023/12/07 00:00:58;;;;;;;18.10;11.48;;;;;;;4.09;74.93;101049.69;4110770;28;20039;-67
2023/12/07 00:03:01;;;;;;;14.70;10.13;;;;;;;4.06;75.05;101049.56;4112343;28;20400;-67
2023/12/07 00:05:05;;;;;;;15.63;9.98;;;;;;;4.04;75.17;101046.03;4113636;28;20041;-67
2023/12/07 00:07:08;;;;;;;15.93;10.18;;;;;;;4.04;75.26;101067.47;4110132;28;20042;-68
2023/12/07 00:09:12;;;;;;;16.70;10.50;;;;;;;4.05;75.40;101047.81;4112163;28;20050;-68
2023/12/07 00:11:15;;;;;;;13.50;10.30;;;;;;;4.02;75.32;101051.09;4114321;28;20057;-68
2023/12/07 00:13:18;;;;;;;17.58;10.55;;;;;;;4.02;75.24;101046.81;4110628;28;20035;-68
2023/12/07 00:15:21;;;;;;;18.83;11.50;;;;;;;3.98;75.39;101055.19;4110353;28;20066;-68
2023/12/07 00:17:24;;;;;;;17.85;10.52;;;;;;;3.99;75.25;101061.25;4114132;28;20054;-68
2023/12/07 00:19:27;;;;;;;15.70;10.63;;;;;;;4.02;75.26;101064.84;4113081;28;20038;-68
2023/12/07 00:21:29;;;;;;;18.75;11.13;;;;;;;4.02;75.58;101063.97;4114333;28;20043;-68
2023/12/07 00:23:32;;;;;;;17.83;10.48;;;;;;;4.00;75.12;101066.47;4095343;28;20142;-68
2023/12/07 00:25:35;;;;;;;14.73;10.65;;;;;;;4.01;75.21;101065.63;4112340;28;20062;-68
2023/12/07 00:27:38;;;;;;;16.17;10.65;;;;;;;4.02;75.40;101075.13;4110454;28;20497;-68
2023/12/07 00:29:40;;;;;;;14.20;10.13;;;;;;;4.03;75.50;101070.88;4102930;28;20043;-68
2023/12/07 00:31:43;;;;;;;19.40;11.90;;;;;;;4.04;75.30;101071.75;4105699;28;20038;-68
2023/12/07 00:33:46;;;;;;;16.05;11.05;;;;;;;3.98;75.51;101069.75;4112080;28;20461;-68
2023/12/07 00:35:50;;;;;;;16.98;11.30;;;;;;;3.97;75.46;101078.28;4107494;28;20036;-68
2023/12/07 00:37:53;;;;;;;17.00;10.85;;;;;;;3.97;75.73;101070.56;4112512;28;20513;-68
2023/12/07 00:39:56;;;;;;;13.75;9.73;;;;;;;3.95;75.80;101075.63;4104354;28;20106;-68
2023/12/07 00:41:59;;;;;;;14.82;10.25;;;;;;;3.98;75.54;101070.63;4105853;28;20034;-68
2023/12/07 00:44:02;;;;;;;18.73;11.52;;;;;;;3.97;75.90;101070.56;4105030;28;20042;-67
2023/12/07 00:46:08;;;;;;;15.82;11.85;;;;;;;3.96;75.58;101068.81;4103760;28;20039;-67
2023/12/07 00:48:11;;;;;;;17.42;11.30;;;;;;;3.96;75.69;101081.66;4106002;28;20058;-67
2023/12/07 00:50:15;;;;;;;16.30;9.63;;;;;;;3.90;75.58;101073.63;4107173;28;20045;-67
2023/12/07 00:52:18;;;;;;;18.45;12.55;;;;;;;3.90;75.52;101081.34;4106511;28;20062;-68
2023/12/07 00:54:21;;;;;;;16.25;11.07;;;;;;;3.87;75.73;101087.22;4106482;28;20035;-68
2023/12/07 00:56:24;;;;;;;16.30;10.82;;;;;;;3.87;75.75;101076.94;4112610;28;20043;-68
2023/12/07 00:58:28;;;;;;;15.38;10.73;;;;;;;3.83;75.46;101075.88;4105580;28;20719;-68
2023/12/07 01:00:31;;;;;;;18.63;11.32;;;;;;;3.79;75.54;101073.09;4113330;28;20476;-68
2023/12/07 01:02:34;;;;;;;16.70;10.77;;;;;;;3.79;75.25;101078.22;4103486;28;20043;-68
2023/12/07 01:04:37;;;;;;;18.48;11.07;;;;;;;3.78;75.39;101079.91;4087811;29;20134;-68
2023/12/07 01:06:42;;;;;;;16.80;11.38;;;;;;;3.75;75.33;101077.19;4097343;28;20039;-68
2023/12/07 01:08:46;;;;;;;;;;;;;;;3.58;75.51;101091.72;4115083;28;20043;-68
2023/12/07 01:10:50;;;;;;;19.20;11.73;;;;;;;3.55;75.38;101098.38;4098105;28;19954;-67
2023/12/07 01:12:52;;;;;;;19.13;11.80;;;;;;;3.52;75.82;101096.56;4102291;28;20039;-67
2023/12/07 01:14:57;;;;;;;16.30;10.80;;;;;;;3.55;75.61;101101.84;4112055;28;20039;-67
2023/12/07 01:17:00;;;;;;;18.35;12.25;;;;;;;3.54;76.26;101096.63;4111913;28;20051;-67
2023/12/07 01:19:02;;;;;;;17.75;10.50;;;;;;;3.52;76.18;101108.50;4101761;28;20045;-67
2023/12/07 01:21:08;;;;;;;17.05;11.52;;;;;;;3.54;76.53;101107.78;4104712;28;20043;-67
2023/12/07 01:23:11;;;;;;;20.17;11.90;;;;;;;3.58;76.40;101114.88;4103754;28;20039;-67
2023/12/07 01:25:21;;;;;;;12.82;9.48;;;;;;;3.58;76.22;101116.56;4109035;28;20035;-67
2023/12/07 01:27:25;;;;;;;21.55;12.95;;;;;;;3.60;76.58;101112.38;4112736;28;20045;-67
2023/12/07 01:29:28;;;;;;;16.42;12.75;;;;;;;3.57;76.63;101120.81;4112096;28;20038;-67
2023/12/07 01:31:31;;;;;;;20.60;13.55;;;;;;;3.55;75.98;101108.66;4102708;28;20035;-67
2023/12/07 01:33:34;;;;;;;19.65;12.75;;;;;;;3.49;75.98;101119.53;4106248;28;20043;-67
2023/12/07 01:35:36;;;;;;;18.13;12.25;;;;;;;3.46;76.61;101115.09;4101385;28;20046;-67
2023/12/07 01:37:39;;;;;;;16.73;11.25;;;;;;;3.46;76.10;101120.25;4105527;28;20030;-67
2023/12/07 01:39:44;;;;;;;20.73;11.73;;;;;;;3.45;76.87;101113.31;4101819;28;20030;-67
2023/12/07 01:41:47;;;;;;;14.93;10.35;;;;;;;3.46;76.61;101116.78;4106941;28;20035;-67
2023/12/07 01:43:50;;;;;;;20.95;12.57;;;;;;;3.44;77.05;101121.84;4110463;28;20409;-67
2023/12/07 01:45:57;;;;;;;15.60;11.02;;;;;;;3.46;76.72;101120.25;4101021;28;20035;-67
2023/12/07 01:48:02;;;;;;;19.02;11.40;;;;;;;3.47;76.95;101118.56;4104596;28;20047;-67
2023/12/07 01:50:06;;;;;;;19.67;13.07;;;;;;;3.46;76.59;101125.38;4110066;28;20077;-67
2023/12/07 01:52:08;;;;;;;20.65;12.20;;;;;;;3.45;76.59;101122.75;4104143;28;20038;-67
2023/12/07 01:54:11;;;;;;;18.63;12.80;;;;;;;3.40;76.32;101125.06;4106924;28;20093;-67
2023/12/07 01:56:15;;;;;;;18.40;12.27;;;;;;;3.36;76.33;101130.84;4106512;28;20045;-67
2023/12/07 01:58:20;;;;;;;22.27;12.63;;;;;;;3.33;76.47;101133.25;4103758;28;20126;-67
2023/12/07 02:00:49;;;;;;;20.40;13.00;;;;;;;3.31;76.85;101125.44;4093168;28;20035;-67
2023/12/07 02:02:52;;;;;;;18.20;12.63;;;;;;;3.31;76.48;101116.84;4093081;28;20505;-67
2023/12/07 02:04:57;;;;;;;18.30;13.10;;;;;;;3.30;77.08;101118.53;4104786;28;20043;-67
2023/12/07 02:07:02;;;;;;;20.45;12.38;;;;;;;3.31;77.03;101119.41;4106983;28;20039;-68
2023/12/07 02:09:06;;;;;;;20.30;13.30;;;;;;;3.29;77.05;101111.63;4107585;28;20070;-68
2023/12/07 02:11:09;;;;;;;18.23;13.23;;;;;;;3.31;76.56;101121.97;4096107;28;20299;-68
2023/12/07 02:13:13;;;;;;;17.60;12.27;;;;;;;3.30;76.32;101120.19;4111485;28;20347;-68
2023/12/07 02:15:17;;;;;;;19.17;13.18;;;;;;;3.31;76.80;101115.16;4101205;28;20523;-68
2023/12/07 02:17:27;;;;;;;17.83;12.50;;;;;;;3.32;76.77;101122.06;4103121;28;20039;-68
2023/12/07 02:19:56;;;;;;;21.83;13.60;;;;;;;3.28;76.71;101114.09;4107909;28;20089;-68
2023/12/07 02:22:07;;;;;;;21.98;13.02;;;;;;;3.27;76.82;101118.38;4088896;28;20411;-68
2023/12/07 02:24:14;;;;;;;20.27;12.43;;;;;;;3.25;76.66;101119.94;4111132;28;20047;-68
2023/12/07 02:26:19;;;;;;;17.35;12.80;;;;;;;3.22;76.98;101124.06;4098726;28;20038;-68
2023/12/07 02:28:23;;;;;;;17.45;13.10;;;;;;;3.19;77.07;101122.19;4105868;28;20394;-68
2023/12/07 02:30:26;;;;;;;18.83;13.38;;;;;;;3.20;77.19;101123.97;4108145;28;20752;-68
2023/12/07 02:32:28;;;;;;;20.67;13.52;;;;;;;3.20;76.93;101131.69;4106119;28;20042;-68
2023/12/07 02:34:31;;;;;;;19.83;13.57;;;;;;;3.18;76.46;101122.13;4110213;28;20482;-68
2023/12/07 02:36:36;;;;;;;19.17;13.52;;;;;;;3.14;76.28;101116.81;4106949;28;20046;-68
2023/12/07 02:38:38;;;;;;;;;;;;;;;3.01;76.46;101119.50;4106624;28;20420;-68
2023/12/07 02:40:44;;;;;;;19.25;13.05;;;;;;;2.97;76.69;101118.44;4092408;28;19922;-68
2023/12/07 02:42:47;;;;;;;20.33;12.35;;;;;;;3.01;76.65;101122.09;4112232;28;20039;-68
2023/12/07 02:44:54;;;;;;;17.05;12.70;;;;;;;3.02;77.15;101113.56;4110833;28;20081;-68
2023/12/07 02:46:59;;;;;;;21.65;12.50;;;;;;;3.00;76.67;101117.72;4111080;28;20039;-68
2023/12/07 02:49:01;;;;;;;;;;;;;;;2.88;77.20;101117.94;4106931;28;20138;-68
2023/12/07 02:51:05;;;;;;;21.67;12.38;;;;;;;2.91;77.30;101119.81;4112333;28;20355;-68
2023/12/07 02:53:08;;;;;;;20.48;13.95;;;;;;;2.94;77.06;101125.97;4104334;28;20046;-68
2023/12/07 02:55:10;;;;;;;19.70;12.02;;;;;;;2.99;76.90;101125.34;4100129;28;20042;-68
2023/12/07 02:57:14;;;;;;;19.42;11.80;;;;;;;3.02;77.42;101123.81;4100857;28;20079;-68
2023/12/07 02:59:16;;;;;;;17.27;11.63;;;;;;;3.00;77.42;101127.13;4102904;28;20408;-68
2023/12/07 03:01:20;;;;;;;19.00;11.77;;;;;;;3.00;76.89;101129.69;4105988;28;20047;-69
2023/12/07 03:03:24;;;;;;;18.95;12.48;;;;;;;2.97;76.78;101131.28;4108083;28;20043;-68
2023/12/07 03:05:27;;;;;;;17.73;12.05;;;;;;;2.93;77.29;101125.91;4112040;28;20450;-68
2023/12/07 03:07:29;;;;;;;18.83;13.52;;;;;;;2.93;77.15;101126.75;4106787;28;20085;-68
2023/12/07 03:09:32;;;;;;;18.33;12.68;;;;;;;2.91;76.96;101128.38;4101699;28;20562;-68
2023/12/07 03:11:35;;;;;;;19.27;12.90;;;;;;;2.90;77.12;101128.28;4104263;28;20339;-68
2023/12/07 03:13:38;;;;;;;18.75;12.63;;;;;;;2.89;76.38;101118.81;4101581;28;20031;-68
2023/12/07 03:15:40;;;;;;;17.98;12.25;;;;;;;2.90;77.22;101126.59;4102789;28;20497;-67
2023/12/07 03:17:45;;;;;;;19.88;12.25;;;;;;;2.92;76.68;101131.81;4109618;28;20545;-67
2023/12/07 03:19:48;;;;;;;18.45;13.13;;;;;;;2.89;77.08;101130.00;4107802;28;20054;-67
2023/12/07 03:21:50;;;;;;;19.10;12.80;;;;;;;2.88;77.06;101133.34;4114125;28;20041;-67
2023/12/07 03:23:53;;;;;;;18.40;13.00;;;;;;;2.89;76.71;101131.66;4113469;28;20042;-67
2023/12/07 03:25:55;;;;;;;17.33;12.63;;;;;;;2.90;76.56;101136.00;4114058;28;20047;-67
2023/12/07 03:27:58;;;;;;;18.15;13.23;;;;;;;2.88;76.81;101137.59;4106334;28;20039;-67
2023/12/07 03:30:00;;;;;;;17.42;12.77;;;;;;;2.85;76.37;101137.41;4102205;28;20075;-67
2023/12/07 03:32:03;;;;;;;17.48;11.68;;;;;;;2.77;76.68;101137.88;4111457;28;20494;-68
2023/12/07 03:34:07;;;;;;;17.27;12.70;;;;;;;2.76;76.71;101138.69;4109573;28;20074;-68
2023/12/07 03:36:12;;;;;;;17.88;12.82;;;;;;;2.74;77.17;101144.50;4110082;28;20039;-68
2023/12/07 03:38:15;;;;;;;16.73;12.38;;;;;;;2.74;77.39;101139.38;4106497;28;20093;-68
2023/12/07 03:40:18;;;;;;;15.13;11.32;;;;;;;2.72;77.17;101139.28;4114769;28;20413;-68
2023/12/07 03:42:22;;;;;;;19.95;12.50;;;;;;;2.71;76.84;101139.22;4109892;28;20047;-68
2023/12/07 03:44:45;;;;;;;17.83;12.40;;;;;;;2.70;77.19;101146.03;4106159;28;20055;-68
2023/12/07 03:46:48;;;;;;;17.42;13.00;;;;;;;2.72;77.19;101139.28;4114405;28;20126;-67
2023/12/07 03:48:51;;;;;;;19.38;13.50;;;;;;;2.71;76.45;101142.66;4105785;28;20110;-67
2023/12/07 03:50:55;;;;;;;20.13;11.70;;;;;;;2.70;76.54;101145.13;4105998;28;20441;-68
2023/12/07 03:52:58;;;;;;;18.10;13.05;;;;;;;2.67;77.07;101143.28;4111609;28;20702;-68
2023/12/07 03:55:01;;;;;;;20.70;13.52;;;;;;;2.67;77.12;101143.28;4102602;28;20035;-68
2023/12/07 03:57:05;;;;;;;20.10;12.80;;;;;;;2.66;76.24;101151.78;4108519;28;20039;-68
2023/12/07 03:59:08;;;;;;;21.90;13.90;;;;;;;2.64;76.43;101150.78;4106367;28;20039;-68
2023/12/07 04:01:11;;;;;;;18.52;13.07;;;;;;;2.62;76.97;101150.72;4108205;28;20034;-68
2023/12/07 04:03:14;;;;;;;19.00;12.93;;;;;;;2.60;77.24;101159.16;4105677;28;20031;-68
2023/12/07 04:05:17;;;;;;;18.98;13.77;;;;;;;2.57;76.75;101161.50;4106468;28;20046;-68
2023/12/07 04:07:22;;;;;;;22.20;12.80;;;;;;;2.55;76.26;101158.84;4105695;28;20039;-68
2023/12/07 04:09:25;;;;;;;16.67;11.45;;;;;;;2.53;77.00;101154.44;4103996;28;20393;-68
2023/12/07 04:11:27;;;;;;;22.10;12.80;;;;;;;2.49;76.61;101153.38;4106326;28;20493;-68
2023/12/07 04:13:30;;;;;;;18.95;13.77;;;;;;;2.50;76.35;101152.59;4107475;28;20035;-68
2023/12/07 04:15:33;;;;;;;17.80;11.95;;;;;;;2.50;76.57;101167.06;4107951;28;20039;-68
2023/12/07 04:17:36;;;;;;;17.15;12.60;;;;;;;2.50;76.79;101159.38;4095996;28;20505;-67
2023/12/07 04:19:39;;;;;;;17.35;12.13;;;;;;;2.50;76.85;101159.38;4109651;28;20065;-67
2023/12/07 04:21:42;;;;;;;19.60;12.98;;;;;;;2.44;76.58;101147.97;4113443;28;20512;-67
2023/12/07 04:23:46;;;;;;;19.95;12.80;;;;;;;2.46;76.58;101154.91;4116417;28;20042;-67
2023/12/07 04:25:48;;;;;;;18.75;13.52;;;;;;;2.44;76.12;101155.69;4111140;28;20432;-67
2023/12/07 04:27:51;;;;;;;21.42;13.32;;;;;;;2.41;76.33;101154.59;4107804;28;20045;-67
2023/12/07 04:29:54;;;;;;;27.02;15.40;;;;;;;2.38;75.93;101155.31;4111112;28;20063;-67
2023/12/07 04:31:56;;;;;;;19.92;13.75;;;;;;;2.37;76.76;101157.81;4108463;28;20062;-67
2023/12/07 04:34:00;;;;;;;20.17;13.30;;;;;;;2.35;77.29;101160.28;4098527;28;20486;-67
2023/12/07 04:36:04;;;;;;;18.10;11.45;;;;;;;2.35;76.50;101165.41;4096785;28;20039;-67
2023/12/07 04:38:07;;;;;;;22.05;14.80;;;;;;;2.35;77.01;101169.63;4112994;28;20042;-67
2023/12/07 04:40:12;;;;;;;18.42;13.05;;;;;;;2.35;76.92;101172.22;4108641;28;20042;-67
2023/12/07 04:42:15;;;;;;;21.90;13.27;;;;;;;2.30;76.82;101171.94;4102657;28;20062;-67
2023/12/07 04:44:19;;;;;;;18.00;12.70;;;;;;;2.29;76.76;101179.56;4108986;28;20045;-67
2023/12/07 04:46:22;;;;;;;18.65;13.60;;;;;;;2.29;76.79;101177.84;4103554;28;20040;-67
2023/12/07 04:48:25;;;;;;;25.63;15.32;;;;;;;2.26;76.42;101182.81;4104425;28;20027;-67
2023/12/07 04:50:27;;;;;;;18.15;13.48;;;;;;;2.23;76.98;101178.41;4104297;28;20039;-67
2023/12/07 04:52:30;;;;;;;19.88;13.18;;;;;;;2.24;76.85;101187.84;4111439;28;20081;-67
2023/12/07 04:54:35;;;;;;;;;;;;;;;2.15;77.04;101189.88;4107863;28;20043;-67
2023/12/07 04:56:40;;;;;;;18.85;13.20;;;;;;;2.20;76.97;101183.31;4094756;28;19930;-67
2023/12/07 04:58:43;;;;;;;25.00;15.55;;;;;;;2.23;77.08;101180.06;4095610;28;20119;-67
2023/12/07 05:00:46;;;;;;;18.75;13.82;;;;;;;2.23;76.97;101177.50;4108012;28;20054;-67
2023/12/07 05:02:49;;;;;;;25.73;15.63;;;;;;;2.20;76.57;101182.44;4103915;28;20517;-67
2023/12/07 05:04:52;;;;;;;21.38;14.98;;;;;;;2.19;76.26;101181.56;4113272;28;20043;-68
2023/12/07 05:06:55;;;;;;;23.02;15.23;;;;;;;2.19;76.67;101179.00;4096168;28;20530;-67
2023/12/07 05:08:58;;;;;;;22.52;15.18;;;;;;;2.16;77.12;101178.84;4099754;28;20462;-67
2023/12/07 05:11:01;;;;;;;20.48;14.40;;;;;;;2.20;76.84;101178.19;4108663;28;20049;-67
2023/12/07 05:13:05;;;;;;;21.13;15.25;;;;;;;2.23;76.54;101167.25;4104233;28;20397;-68
2023/12/07 05:15:09;;;;;;;20.23;13.75;;;;;;;2.22;77.29;101171.50;4095568;28;20039;-68
2023/12/07 05:17:12;;;;;;;23.73;15.43;;;;;;;2.16;77.36;101178.84;4103110;28;20047;-68
2023/12/07 05:19:17;;;;;;;20.60;14.77;;;;;;;2.14;77.57;101177.84;4108856;28;20089;-68
2023/12/07 05:21:23;;;;;;;22.92;14.80;;;;;;;2.12;77.11;101176.88;4105665;28;20035;-68
2023/12/07 05:23:26;;;;;;;22.83;14.40;;;;;;;2.16;77.39;101183.06;4106551;28;20521;-68
2023/12/07 05:25:29;;;;;;;23.05;14.15;;;;;;;2.16;77.38;101177.94;4095910;28;20071;-68
2023/12/07 05:27:32;;;;;;;23.63;15.57;;;;;;;2.17;77.32;101177.16;4106975;28;20130;-68
2023/12/07 05:30:25;;;;;;;22.35;14.90;;;;;;;2.17;77.11;101172.88;4108834;28;20567;-68
2023/12/07 05:32:30;;;;;;;26.20;16.15;;;;;;;2.14;76.47;101174.41;4111563;28;20039;-68
2023/12/07 05:34:33;;;;;;;23.55;15.63;;;;;;;2.12;76.89;101171.75;4099399;29;20046;-68
2023/12/07 05:36:36;;;;;;;23.05;15.85;;;;;;;2.11;76.78;101175.09;4098794;29;20043;-68
2023/12/07 05:38:38;;;;;;;25.02;15.98;;;;;;;2.11;76.77;101175.09;4099726;29;20102;-68
2023/12/07 05:40:41;;;;;;;22.08;15.88;;;;;;;2.09;76.47;101167.31;4101613;28;20113;-68
2023/12/07 05:42:44;;;;;;;24.02;16.38;;;;;;;2.05;76.88;101183.31;4091598;28;20221;-68
2023/12/07 05:44:47;;;;;;;24.98;15.90;;;;;;;2.03;76.37;101178.88;4101725;28;20043;-68
2023/12/07 05:46:50;;;;;;;20.52;14.68;;;;;;;2.01;76.57;101173.66;4111971;28;20042;-68
2023/12/07 05:48:54;;;;;;;22.48;15.25;;;;;;;1.97;77.18;101174.28;4102932;28;20066;-68
2023/12/07 05:50:58;;;;;;;23.38;15.63;;;;;;;1.98;76.89;101170.91;4089150;28;20435;-68
2023/12/07 05:53:01;;;;;;;24.63;15.77;;;;;;;2.01;77.09;101177.91;4107969;28;20125;-68
2023/12/07 05:55:05;;;;;;;25.75;15.95;;;;;;;2.03;76.94;101177.22;4097939;29;20047;-68
2023/12/07 05:57:08;;;;;;;22.45;16.60;;;;;;;2.04;77.21;101176.38;4109645;28;20046;-68
2023/12/07 05:59:11;;;;;;;20.35;14.85;;;;;;;2.04;76.44;101183.22;4109678;28;20525;-68
2023/12/07 06:01:18;;;;;;;24.27;15.70;;;;;;;1.99;76.20;101180.38;4111919;28;20588;-68
2023/12/07 06:03:21;;;;;;;27.83;15.98;;;;;;;1.99;76.67;101177.81;4106725;28;20050;-68
2023/12/07 06:05:24;;;;;;;22.17;15.40;;;;;;;2.00;76.75;101179.59;4093185;28;20122;-68
2023/12/07 06:07:27;;;;;;;21.35;14.50;;;;;;;1.98;76.85;101183.72;4103563;28;20039;-68
2023/12/07 06:09:30;;;;;;;21.50;15.13;;;;;;;1.97;76.28;101181.97;4108058;28;20094;-68
2023/12/07 06:11:33;;;;;;;25.98;15.38;;;;;;;2.01;77.03;101189.03;4107752;28;20375;-68
2023/12/07 06:13:36;;;;;;;22.45;15.02;;;;;;;2.00;76.75;101177.03;4096056;28;20043;-68
2023/12/07 06:15:39;;;;;;;20.35;14.60;;;;;;;1.99;76.53;101182.06;4108960;28;20100;-68
2023/12/07 06:17:40;;;;;;;22.35;15.48;;;;;;;1.95;76.77;101193.78;4109233;28;20074;-68
2023/12/07 06:19:43;;;;;;;25.83;14.77;;;;;;;1.89;77.10;101181.47;4099272;28;20031;-68
2023/12/07 06:21:48;;;;;;;24.67;16.27;;;;;;;1.91;76.84;101186.72;4107347;28;20042;-68
2023/12/07 06:23:52;;;;;;;26.67;17.05;;;;;;;1.91;76.86;101186.72;4098151;28;20043;-68
2023/12/07 06:25:56;;;;;;;24.38;16.13;;;;;;;1.92;76.56;101193.63;4084750;28;20071;-69
2023/12/07 06:27:58;;;;;;;23.65;15.80;;;;;;;1.91;77.12;101191.84;4106324;28;20520;-68
2023/12/07 06:30:13;;;;;;;21.33;15.25;;;;;;;1.90;77.04;101195.22;4100284;28;20039;-68
2023/12/07 06:32:16;;;;;;;25.70;17.95;;;;;;;1.86;77.19;101191.56;4102679;28;20073;-69
2023/12/07 06:34:19;;;;;;;19.30;14.38;;;;;;;1.88;77.35;101196.78;4106373;28;20122;-69
2023/12/07 06:36:25;;;;;;;22.15;15.65;;;;;;;1.86;77.01;101196.69;4093497;28;20044;-69
2023/12/07 06:38:29;;;;;;;26.17;16.45;;;;;;;1.87;76.89;101200.13;4112717;28;20490;-69
2023/12/07 06:40:32;;;;;;;22.77;15.40;;;;;;;1.87;77.35;101198.47;4106141;28;20481;-69
2023/12/07 06:42:35;;;;;;;22.67;15.55;;;;;;;1.87;77.33;101203.59;4108470;28;20046;-69
2023/12/07 06:44:38;;;;;;;24.08;14.30;;;;;;;1.89;77.03;101199.44;4106079;28;20089;-68
2023/12/07 06:46:41;;;;;;;23.13;15.45;;;;;;;1.89;76.57;101199.44;4107835;28;20440;-68
2023/12/07 06:48:44;;;;;;;22.92;16.48;;;;;;;1.88;76.77;101191.66;4104396;28;20042;-68
2023/12/07 06:50:47;;;;;;;22.73;15.27;;;;;;;1.85;76.51;101191.47;4101401;28;20054;-68
2023/12/07 06:52:50;;;;;;;22.30;14.75;;;;;;;1.81;77.41;101195.53;4112939;28;20101;-68
2023/12/07 06:54:55;;;;;;;23.02;14.68;;;;;;;1.82;77.03;101199.84;4096315;28;20055;-68
2023/12/07 06:56:58;;;;;;;23.73;14.52;;;;;;;1.81;77.26;101203.22;4102644;28;20039;-68
2023/12/07 06:59:00;;;;;;;22.15;14.63;;;;;;;1.84;76.63;101200.84;4093169;28;20031;-68
2023/12/07 07:01:04;;;;;;;22.50;14.65;;;;;;;1.84;76.70;101202.50;4097739;28;20102;-68
2023/12/07 07:03:07;;;;;;;21.27;15.65;;;;;;;1.82;76.81;101196.41;4101622;28;20108;-69
2023/12/07 07:05:11;;;;;;;23.13;13.98;;;;;;;1.81;77.25;101202.31;4108349;28;20486;-68
2023/12/07 07:07:14;;;;;;;23.85;13.93;;;;;;;1.83;77.15;101200.75;4108470;28;20457;-68
2023/12/07 07:09:17;;;;;;;20.98;14.57;;;;;;;1.93;77.21;101205.66;4097421;28;20035;-68
2023/12/07 07:11:21;;;;;;;20.27;13.57;;;;;;;1.94;77.63;101203.97;4114153;28;20420;-68
2023/12/07 07:13:24;;;;;;;20.85;14.38;;;;;;;1.89;77.43;101199.44;4109458;28;20050;-68
2023/12/07 07:15:27;;;;;;;18.10;12.55;;;;;;;1.86;77.36;101204.38;4096578;28;20668;-69
2023/12/07 07:17:32;;;;;;;18.90;13.02;;;;;;;1.84;77.44;101205.97;4112696;28;20125;-69
2023/12/07 07:19:35;;;;;;;21.48;13.43;;;;;;;1.87;77.05;101213.84;4112071;28;20474;-69
2023/12/07 07:21:38;;;;;;;18.88;12.15;;;;;;;1.85;77.28;101217.97;4111051;28;20074;-69
2023/12/07 07:23:41;;;;;;;18.13;13.02;;;;;;;1.85;76.46;101217.09;4095430;28;20062;-68
2023/12/07 07:25:43;;;;;;;25.63;15.90;;;;;;;1.88;77.18;101219.84;4110933;28;20067;-68
2023/12/07 07:27:48;;;;;;;23.65;16.08;;;;;;;1.88;77.00;101222.41;4110909;28;20105;-68
2023/12/07 07:29:51;;;;;;;23.75;15.73;;;;;;;1.87;77.33;101224.09;4110689;28;20042;-68
2023/12/07 07:31:54;;;;;;;24.33;16.17;;;;;;;1.88;77.18;101231.00;4109700;28;20043;-68
2023/12/07 07:33:57;;;;;;;23.38;16.00;;;;;;;1.89;77.38;101224.19;4111055;28;20486;-69
2023/12/07 07:36:04;;;;;;;26.42;16.20;;;;;;;1.89;77.25;101226.75;4114206;28;20494;-69
2023/12/07 07:38:07;;;;;;;22.67;15.52;;;;;;;1.94;76.72;101232.16;4104820;28;20069;-69
2023/12/07 07:40:11;;;;;;;21.85;14.60;;;;;;;1.96;76.93;101236.59;4111160;28;20093;-69
2023/12/07 07:42:14;;;;;;;22.27;16.27;;;;;;;1.96;76.64;101236.59;4109969;28;20134;-69
2023/12/07 07:44:18;;;;;;;22.42;17.10;;;;;;;1.97;77.33;101233.25;4111765;28;20035;-69
2023/12/07 07:46:20;;;;;;;28.48;20.15;;;;;;;1.97;76.92;101232.34;4098869;28;20090;-69
2023/12/07 07:48:25;;;;;;;36.28;21.67;;;;;;;1.98;76.83;101237.56;4111960;28;20038;-69
2023/12/07 07:50:28;;;;;;;31.15;22.15;;;;;;;1.95;76.88;101234.81;4108737;28;20054;-68
2023/12/07 07:52:30;;;;;;;28.40;20.75;;;;;;;1.93;76.82;101244.13;4108957;28;20054;-68
2023/12/07 07:54:33;;;;;;;30.50;20.23;;;;;;;1.93;76.63;101241.56;4103953;28;20058;-68
2023/12/07 07:56:36;;;;;;;29.90;18.83;;;;;;;1.95;76.97;101234.81;4095797;28;20051;-69
2023/12/07 07:58:39;;;;;;;26.90;18.42;;;;;;;1.97;77.05;101228.13;4111881;28;20042;-69
2023/12/07 08:00:43;;;;;;;28.13;19.58;;;;;;;1.96;77.35;101226.34;4112218;28;20476;-69
2023/12/07 08:02:46;;;;;;;31.48;18.50;;;;;;;1.96;77.00;101223.78;4114040;28;20548;-68
2023/12/07 08:04:49;;;;;;;25.70;17.63;;;;;;;1.95;76.86;101216.88;4105514;28;20375;-68
2023/12/07 08:06:52;;;;;;;31.25;18.35;;;;;;;1.96;77.54;101215.19;4109437;28;20039;-68
2023/12/07 08:08:54;;;;;;;42.55;20.00;;;;;;;1.96;77.57;101215.19;4114541;28;20386;-68
2023/12/07 08:10:57;;;;;;;90.35;20.92;;;;;;;1.96;77.98;101216.09;4123663;28;20429;-68
2023/12/07 08:13:00;;;;;;;28.52;18.85;;;;;;;1.94;77.83;101203.97;4117478;28;20039;-68
2023/12/07 08:15:04;;;;;;;33.42;21.15;;;;;;;1.99;78.21;101200.88;4116326;28;20094;-68
2023/12/07 08:17:09;;;;;;;30.88;17.20;;;;;;;1.95;78.89;101191.22;4114425;28;20039;-68
2023/12/07 08:19:12;;;;;;;26.35;17.90;;;;;;;1.94;78.31;101191.13;4103868;28;20042;-69
2023/12/07 08:21:20;;;;;;;26.15;17.15;;;;;;;1.97;78.11;101183.63;4106843;28;20053;-69
2023/12/07 08:23:30;;;;;;;28.38;17.25;;;;;;;1.98;79.08;101198.22;4109201;28;20045;-69
2023/12/07 08:25:33;;;;;;;37.28;19.90;;;;;;;2.00;78.74;101194.97;4105824;28;20039;-68
2023/12/07 08:27:37;;;;;;;38.88;20.25;;;;;;;2.03;79.28;101192.59;4111422;28;20470;-68
2023/12/07 08:29:40;;;;;;;28.02;18.02;;;;;;;2.05;78.97;101191.00;4107071;28;20058;-68
2023/12/07 08:31:43;;;;;;;30.63;17.80;;;;;;;2.08;79.22;101195.44;4094588;28;20035;-68
2023/12/07 08:33:47;;;;;;;36.28;20.92;;;;;;;2.15;79.60;101189.00;4111075;28;20098;-68
2023/12/07 08:35:54;;;;;;;44.60;20.77;;;;;;;2.22;79.18;101193.69;4106227;28;20066;-68
2023/12/07 08:37:57;;;;;;;46.35;20.52;;;;;;;2.18;78.88;101186.63;4108337;28;20122;-68
2023/12/07 08:40:00;;;;;;;46.10;21.95;;;;;;;2.20;78.76;101190.16;4105271;28;20118;-68
2023/12/07 08:42:03;;;;;;;29.77;19.38;;;;;;;2.33;78.55;101182.38;4112195;28;20045;-68
2023/12/07 08:44:06;;;;;;;39.50;22.98;;;;;;;2.34;78.69;101191.84;4098143;28;20038;-68
2023/12/07 08:46:09;;;;;;;48.90;23.10;;;;;;;2.34;78.91;101193.56;4096855;28;20054;-68
2023/12/07 08:48:12;;;;;;;40.03;23.05;;;;;;;2.35;79.11;101185.94;4104831;28;20043;-68
2023/12/07 08:50:17;;;;;;;31.42;18.95;;;;;;;2.38;79.21;101185.22;4090586;28;20039;-68
2023/12/07 08:52:20;;;;;;;39.08;21.58;;;;;;;2.37;79.51;101194.59;4106686;28;20133;-68
2023/12/07 08:54:41;;;;;;;54.53;23.30;;;;;;;2.42;79.21;101198.34;4107271;28;20533;-68
2023/12/07 08:56:44;;;;;;;30.65;19.70;;;;;;;2.44;79.86;101185.59;4104180;28;20047;-68
2023/12/07 08:58:47;;;;;;;29.90;19.73;;;;;;;2.44;80.29;101190.72;4111431;28;20133;-68
2023/12/07 09:00:50;;;;;;;37.42;22.58;;;;;;;2.46;80.35;101189.13;4106189;28;20043;-69
2023/12/07 09:02:53;;;;;;;37.88;22.23;;;;;;;2.51;79.75;101192.88;4101177;28;20478;-69
2023/12/07 09:04:56;;;;;;;36.15;21.42;;;;;;;2.53;79.95;101190.38;4105343;28;20130;-69
2023/12/07 09:07:00;;;;;;;37.15;21.65;;;;;;;2.55;79.60;101188.78;4091024;28;20053;-69
2023/12/07 09:09:04;;;;;;;33.28;20.75;;;;;;;2.55;80.06;101188.78;4099125;29;20055;-69
2023/12/07 09:11:07;;;;;;;36.90;22.42;;;;;;;2.53;80.24;101185.25;4116265;28;20500;-69
2023/12/07 09:13:10;;;;;;;34.58;21.13;;;;;;;2.57;80.02;101187.16;4108020;28;20405;-69
2023/12/07 09:15:13;;;;;;;38.03;21.48;;;;;;;2.62;80.00;101196.03;4104711;28;20398;-68
2023/12/07 09:17:17;;;;;;;33.13;19.95;;;;;;;2.64;79.84;101191.88;4103543;28;20129;-68
2023/12/07 09:19:20;;;;;;;39.30;21.90;;;;;;;2.68;80.29;101182.69;4106582;28;20053;-69
2023/12/07 09:21:23;;;;;;;43.10;22.40;;;;;;;2.72;80.40;101188.06;4105136;28;20802;-68
2023/12/07 09:23:27;;;;;;;35.90;20.95;;;;;;;2.76;79.92;101182.31;4093712;28;20039;-69
2023/12/07 09:25:30;;;;;;;35.10;19.13;;;;;;;2.81;79.35;101186.84;4105604;28;20035;-68
2023/12/07 09:27:34;;;;;;;36.50;21.05;;;;;;;2.76;80.14;101190.03;4106903;28;20425;-68
2023/12/07 09:29:37;;;;;;;41.90;19.73;;;;;;;2.76;80.08;101189.13;4102821;28;20110;-69
2023/12/07 09:31:40;;;;;;;36.95;21.52;;;;;;;2.88;79.68;101194.09;4105973;28;20039;-68